Time;durP1;ratioP1;P1;durP2;ratioP2;P2;SDS_P1;SDS_P2;PMS_P1;PMS_P2;Temp;Humidity;BMP_temperature;BMP_pressure;BME280_temperature;BME280_humidity;BME280_pressure;Samples;Min_cycle;Max_cycle;Signal;HPM_P1;HPM_P2
2022/11/14 00:00:07;;;;;;;;;;;;;;;6.53;74.14;101521.47;5041317;28;19916;-57
2022/11/14 00:02:32;;;;;;;;;;;;;;;6.51;73.94;101511.03;5046192;28;19925;-55
2022/11/14 00:04:58;;;;;;;;;;;;;;;6.50;73.92;101513.81;5045767;28;19916;-54
2022/11/14 00:07:23;;;;;;;;;;;;;;;6.48;74.20;101516.56;5044707;28;19971;-56
2022/11/14 00:09:48;;;;;;;;;;;;;;;6.48;74.00;101513.09;5045599;28;19917;-54
2022/11/14 00:12:13;;;;;;;;;;;;;;;6.45;74.19;101508.91;5048011;28;19949;-56
2022/11/14 00:14:38;;;;;;;;;;;;;;;6.41;74.17;101512.78;5045562;28;19920;-56
2022/11/14 00:17:04;;;;;;;;;;;;;;;6.39;74.18;101506.78;5047145;28;19916;-56
2022/11/14 00:19:29;;;;;;;;;;;;;;;6.37;74.04;101505.25;5044009;28;20005;-57
2022/11/14 00:21:54;;;;;;;;;;;;;;;6.30;74.27;101504.91;5046086;28;20293;-55
2022/11/14 00:24:19;;;;;;;;;;;;;;;6.31;74.02;101505.72;5047049;28;19966;-57
2022/11/14 00:26:45;;;;;;;;;;;;;;;6.30;74.02;101507.53;5047324;28;20019;-55
2022/11/14 00:29:11;;;;;;;;;;;;;;;6.29;74.14;101497.94;5046518;28;20295;-56
2022/11/14 00:31:36;;;;;;;;;;;;;;;6.27;74.21;101499.88;5045203;28;20341;-57
2022/11/14 00:34:01;;;;;;;;;;;;;;;6.25;74.17;101499.16;5047847;28;19921;-56
2022/11/14 00:36:26;;;;;;;;;;;;;;;6.22;74.20;101502.06;5042911;28;20045;-55
2022/11/14 00:38:53;;;;;;;;;;;;;;;6.20;74.12;101498.72;5046794;28;20368;-54
2022/11/14 00:41:18;;;;;;;;;;;;;;;6.17;73.93;101496.31;5044405;28;19917;-57
2022/11/14 00:43:43;;;;;;;;;;;;;;;6.14;73.79;101492.16;5045244;28;19916;-56
2022/11/14 00:46:09;;;;;;;;;;;;;;;6.12;73.98;101498.50;5046936;28;19923;-57
2022/11/14 00:48:34;;;;;;;;;;;;;;;6.09;73.92;101493.50;5043496;28;20384;-54
2022/11/14 00:50:59;;;;;;;;;;;;;;;6.07;74.10;101484.84;5045345;28;19921;-54
2022/11/14 00:53:24;;;;;;;;;;;;;;;6.03;74.06;101491.34;5042628;28;19916;-57
2022/11/14 00:55:49;;;;;;;;;;;;;;;6.01;74.11;101478.28;5046123;28;19921;-54
2022/11/14 00:58:15;;;;;;;;;;;;;;;6.01;73.79;101482.72;5047099;28;19922;-55
2022/11/14 01:00:40;;;;;;;;;;;;;;;6.02;74.13;101479.09;5045533;28;19920;-53
2022/11/14 01:03:05;;;;;;;;;;;;;;;6.00;74.04;101471.34;5045794;28;19959;-54
2022/11/14 01:05:30;;;;;;;;;;;;;;;6.02;73.89;101473.84;5044813;28;20017;-56
2022/11/14 01:07:55;;;;;;;;;;;;;;;6.01;74.22;101464.25;5042446;28;19964;-53
2022/11/14 01:10:21;;;;;;;;;;;;;;;6.00;74.29;101459.94;5045106;28;20383;-55
2022/11/14 01:12:46;;;;;;;;;;;;;;;6.00;74.04;101460.78;5047072;28;19916;-55
2022/11/14 01:15:11;;;;;;;;;;;;;;;5.99;74.17;101451.19;5044838;28;19974;-56
2022/11/14 01:17:36;;;;;;;;;;;;;;;6.00;74.27;101449.41;5046940;28;20284;-56
2022/11/14 01:20:01;;;;;;;;;;;;;;;5.99;74.23;101451.19;5046442;28;19963;-56
2022/11/14 01:22:28;;;;;;;;;;;;;;;5.96;74.16;101450.63;5043098;28;19927;-56
2022/11/14 01:24:54;;;;;;;;;;;;;;;5.94;74.21;101440.19;5045737;28;19925;-56
2022/11/14 01:27:19;;;;;;;;;;;;;;;5.92;74.22;101434.22;5044211;28;19977;-53
2022/11/14 01:29:44;;;;;;;;;;;;;;;5.89;74.32;101431.81;5046548;28;19916;-55
2022/11/14 01:32:09;;;;;;;;;;;;;;;5.87;74.23;101424.03;5048522;28;20307;-57
2022/11/14 01:34:34;;;;;;;;;;;;;;;5.85;74.45;101423.31;5045073;28;19952;-57
2022/11/14 01:36:59;;;;;;;;;;;;;;;5.83;74.44;101419.13;5045591;28;20217;-56
2022/11/14 01:39:25;;;;;;;;;;;;;;;5.78;74.68;101410.75;5044337;28;20300;-53
2022/11/14 01:41:50;;;;;;;;;;;;;;;5.72;74.93;101405.97;5045284;28;19931;-54
2022/11/14 01:44:16;;;;;;;;;;;;;;;5.68;74.88;101408.03;5043912;28;19987;-56
2022/11/14 01:46:44;;;;;;;;;;;;;;;5.62;74.85;101403.28;5043782;28;19940;-55
2022/11/14 01:49:15;;;;;;;;;;;;;;;5.58;75.07;101397.41;5040134;28;19920;-56
2022/11/14 01:51:43;;;;;;;;;;;;;;;5.55;74.94;101402.09;5040652;28;19928;-56
2022/11/14 01:54:12;;;;;;;;;;;;;;;5.47;74.93;101383.41;5041038;28;20015;-57
2022/11/14 01:56:39;;;;;;;;;;;;;;;5.48;75.25;101385.09;5042658;28;19924;-54
2022/11/14 01:59:06;;;;;;;;;;;;;;;5.43;75.16;101387.28;5043756;28;20406;-54
2022/11/14 02:01:33;;;;;;;;;;;;;;;5.38;75.57;101386.81;5041112;28;19921;-55
2022/11/14 02:03:58;;;;;;;;;;;;;;;5.37;76.13;101385.13;5047992;28;19917;-56
2022/11/14 02:06:26;;;;;;;;;;;;;;;5.35;76.21;101390.53;5043939;28;19962;-56
2022/11/14 02:08:52;;;;;;;;;;;;;;;5.37;75.89;101395.66;5044737;28;19921;-53
2022/11/14 02:11:17;;;;;;;;;;;;;;;5.39;75.94;101391.13;5043342;28;19913;-56
2022/11/14 02:13:43;;;;;;;;;;;;;;;5.37;75.82;101380.72;5040362;28;19924;-55
2022/11/14 02:16:08;;;;;;;;;;;;;;;5.38;75.87;101386.81;5042633;28;20414;-53
2022/11/14 02:18:33;;;;;;;;;;;;;;;5.37;75.79;101383.34;5043957;28;19916;-55
2022/11/14 02:20:58;;;;;;;;;;;;;;;5.37;75.70;101383.34;5042249;28;20403;-55
2022/11/14 02:23:25;;;;;;;;;;;;;;;5.39;75.95;101372.69;5043864;28;20381;-55
2022/11/14 02:25:50;;;;;;;;;;;;;;;5.39;76.02;101370.03;5041900;28;19928;-55
2022/11/14 02:28:15;;;;;;;;;;;;;;;5.40;76.28;101376.97;5043126;28;19925;-56
2022/11/14 02:30:40;;;;;;;;;;;;;;;5.40;75.94;101369.91;5044054;28;19924;-56
2022/11/14 02:33:05;;;;;;;;;;;;;;;5.39;76.37;101378.78;5041885;28;19950;-56
2022/11/14 02:35:31;;;;;;;;;;;;;;;5.35;76.23;101371.25;5043145;28;19921;-55
2022/11/14 02:37:56;;;;;;;;;;;;;;;5.29;75.84;101375.22;5044883;28;19917;-56
2022/11/14 02:40:21;;;;;;;;;;;;;;;5.24;76.04;101366.88;5041414;28;20296;-56
2022/11/14 02:42:46;;;;;;;;;;;;;;;5.15;76.09;101384.22;5046294;28;19917;-55
2022/11/14 02:45:12;;;;;;;;;;;;;;;5.04;76.20;101376.34;5045115;28;20372;-57
2022/11/14 02:47:37;;;;;;;;;;;;;;;4.97;76.08;101373.38;5046241;28;19920;-55
2022/11/14 02:50:02;;;;;;;;;;;;;;;4.95;76.05;101372.66;5045492;28;20663;-54
2022/11/14 02:52:27;;;;;;;;;;;;;;;4.96;76.25;101362.97;5044303;28;20358;-56
2022/11/14 02:54:53;;;;;;;;;;;;;;;4.96;76.60;101371.69;5041432;28;19988;-55
2022/11/14 02:57:18;;;;;;;;;;;;;;;4.98;76.62;101363.69;5047749;28;19916;-56
2022/11/14 02:59:43;;;;;;;;;;;;;;;5.01;76.77;101363.44;5043073;28;19936;-57
2022/11/14 03:02:08;;;;;;;;;;;;;;;5.01;76.46;101360.78;5045396;28;20007;-55
2022/11/14 03:04:33;;;;;;;;;;;;;;;5.00;76.57;101358.28;5044480;28;19916;-55
2022/11/14 03:06:58;;;;;;;;;;;;;;;5.01;76.60;101358.16;5042900;28;19997;-53
2022/11/14 03:09:24;;;;;;;;;;;;;;;5.01;76.33;101352.91;5041549;28;19933;-55
2022/11/14 03:11:49;;;;;;;;;;;;;;;4.99;76.36;101346.94;5038625;28;20589;-56
2022/11/14 03:14:14;;;;;;;;;;;;;;;4.97;76.42;101343.56;5044077;28;19927;-58
2022/11/14 03:16:39;;;;;;;;;;;;;;;4.95;76.36;101340.25;5050639;28;19917;-56
2022/11/14 03:19:04;;;;;;;;;;;;;;;4.94;76.41;101344.66;5046123;28;19921;-56
2022/11/14 03:21:30;;;;;;;;;;;;;;;4.91;76.32;101342.25;5049472;28;19924;-55
2022/11/14 03:23:55;;;;;;;;;;;;;;;4.90;76.68;101343.19;5049425;28;19923;-56
2022/11/14 03:26:20;;;;;;;;;;;;;;;4.89;76.50;101335.44;5049305;28;19921;-56
2022/11/14 03:28:45;;;;;;;;;;;;;;;4.85;76.56;101344.53;5049193;28;20433;-57
2022/11/14 03:31:11;;;;;;;;;;;;;;;4.81;76.84;101336.06;5046708;28;19917;-57
2022/11/14 03:33:36;;;;;;;;;;;;;;;4.80;76.85;101336.16;5047760;28;19917;-55
2022/11/14 03:36:02;;;;;;;;;;;;;;;4.78;76.60;101330.19;5047929;28;19943;-55
2022/11/14 03:38:27;;;;;;;;;;;;;;;4.75;76.73;101327.81;5042763;28;19971;-55
2022/11/14 03:40:53;;;;;;;;;;;;;;;4.72;77.05;101326.25;5046198;28;19949;-56
2022/11/14 03:43:19;;;;;;;;;;;;;;;4.69;77.71;101320.41;5045578;28;20286;-52
2022/11/14 03:45:44;;;;;;;;;;;;;;;4.66;77.38;101322.31;5050065;28;19917;-55
2022/11/14 03:48:09;;;;;;;;;;;;;;;4.65;77.17;101325.06;5044230;28;19927;-56
2022/11/14 03:50:35;;;;;;;;;;;;;;;4.62;77.34;101320.03;5038889;28;19916;-54
2022/11/14 03:53:00;;;;;;;;;;;;;;;4.58;77.61;101324.69;5048550;28;19982;-57
2022/11/14 03:55:25;;;;;;;;;;;;;;;4.57;77.60;101328.28;5044003;28;19966;-55
2022/11/14 03:57:50;;;;;;;;;;;;;;;4.54;77.80;101315.38;5045535;28;19921;-55
2022/11/14 04:00:15;;;;;;;;;;;;;;;4.52;77.96;101322.56;5048424;28;19921;-55
2022/11/14 04:02:41;;;;;;;;;;;;;;;4.49;77.90;101320.16;5046466;28;19917;-53
2022/11/14 04:05:06;;;;;;;;;;;;;;;4.45;78.36;101313.47;5048773;28;20396;-56
2022/11/14 04:07:31;;;;;;;;;;;;;;;4.43;78.67;101311.91;5047711;28;19936;-56
2022/11/14 04:09:56;;;;;;;;;;;;;;;4.41;78.35;101298.91;5046113;28;20015;-56
2022/11/14 04:12:22;;;;;;;;;;;;;;;4.37;79.18;101300.09;5046775;28;20371;-54
2022/11/14 04:14:47;;;;;;;;;;;;;;;4.33;78.95;101299.47;5045626;28;20299;-53
2022/11/14 04:17:12;;;;;;;;;;;;;;;4.31;79.37;101301.38;5047129;28;19952;-56
2022/11/14 04:19:37;;;;;;;;;;;;;;;4.27;79.58;101297.31;5041882;28;19917;-55
2022/11/14 04:22:02;;;;;;;;;;;;;;;4.25;79.56;101293.13;5046258;28;19964;-55
2022/11/14 04:24:27;;;;;;;;;;;;;;;4.22;79.71;101285.50;5046073;28;20011;-56
2022/11/14 04:26:53;;;;;;;;;;;;;;;4.21;80.18;101289.91;5048120;28;20539;-54
2022/11/14 04:29:18;;;;;;;;;;;;;;;4.20;79.88;101282.16;5046424;28;19994;-56
2022/11/14 04:31:43;;;;;;;;;;;;;;;4.17;80.46;101290.28;5050301;28;19916;-57
2022/11/14 04:34:08;;;;;;;;;;;;;;;4.15;80.41;101286.94;5051810;28;19920;-53
2022/11/14 04:36:33;;;;;;;;;;;;;;;4.13;80.53;101283.59;5047167;28;19955;-54
2022/11/14 04:38:59;;;;;;;;;;;;;;;4.11;80.39;101283.69;5049585;28;20296;-55
2022/11/14 04:41:24;;;;;;;;;;;;;;;4.11;80.67;101280.25;5048883;28;20038;-55
2022/11/14 04:43:49;;;;;;;;;;;;;;;4.08;80.63;101281.31;5045836;28;19948;-54
2022/11/14 04:46:14;;;;;;;;;;;;;;;4.07;80.69;101274.38;5045582;28;20300;-53
2022/11/14 04:48:39;;;;;;;;;;;;;;;4.08;80.69;101277.84;5043148;28;20516;-54
2022/11/14 04:51:05;;;;;;;;;;;;;;;4.06;80.74;101275.34;5048065;28;19913;-56
2022/11/14 04:53:30;;;;;;;;;;;;;;;4.05;80.46;101271.03;5048404;28;20050;-52
2022/11/14 04:55:55;;;;;;;;;;;;;;;4.03;80.88;101268.50;5049395;28;19920;-56
2022/11/14 04:58:20;;;;;;;;;;;;;;;4.01;80.95;101273.03;5048414;28;20394;-56
2022/11/14 05:00:45;;;;;;;;;;;;;;;4.00;81.06;101274.00;5049120;28;19913;-52
2022/11/14 05:03:10;;;;;;;;;;;;;;;3.98;80.88;101269.81;5047869;28;20038;-55
2022/11/14 05:05:36;;;;;;;;;;;;;;;3.92;81.25;101268.50;5049481;28;19912;-54
2022/11/14 05:08:01;;;;;;;;;;;;;;;3.88;81.31;101271.47;5045504;28;19963;-55
2022/11/14 05:10:26;;;;;;;;;;;;;;;3.85;81.28;101266.47;5053596;28;19970;-56
2022/11/14 05:12:52;;;;;;;;;;;;;;;3.81;81.53;101265.88;5053422;28;19920;-56
2022/11/14 05:15:17;;;;;;;;;;;;;;;3.78;81.52;101258.22;5052721;28;19967;-57
2022/11/14 05:17:42;;;;;;;;;;;;;;;3.76;81.60;101260.13;5053358;28;19913;-56
2022/11/14 05:20:08;;;;;;;;;;;;;;;3.74;81.98;101248.88;5046911;28;20039;-56
2022/11/14 05:22:33;;;;;;;;;;;;;;;3.69;81.96;101246.59;5049414;28;19962;-54
2022/11/14 05:24:58;;;;;;;;;;;;;;;3.69;82.07;101243.97;5052138;28;19956;-54
2022/11/14 05:27:23;;;;;;;;;;;;;;;3.67;82.06;101248.50;5049896;28;19966;-56
2022/11/14 05:29:48;;;;;;;;;;;;;;;3.67;81.90;101240.63;5058820;28;19912;-55
2022/11/14 05:32:14;;;;;;;;;;;;;;;3.66;82.02;101238.13;5052087;28;20391;-56
2022/11/14 05:34:40;;;;;;;;;;;;;;;3.65;82.25;101241.69;5053451;28;20000;-55
2022/11/14 05:37:05;;;;;;;;;;;;;;;3.63;82.31;101240.97;5049664;28;19913;-57
2022/11/14 05:39:30;;;;;;;;;;;;;;;3.64;82.37;101245.28;5047982;28;20042;-56
2022/11/14 05:41:55;;;;;;;;;;;;;;;3.65;82.12;101239.06;5048386;28;19912;-54
2022/11/14 05:44:20;;;;;;;;;;;;;;;3.64;81.90;101243.50;5048664;28;19920;-55
2022/11/14 05:46:45;;;;;;;;;;;;;;;3.66;81.73;101243.38;5055566;28;19920;-55
2022/11/14 05:49:11;;;;;;;;;;;;;;;3.64;82.44;101238.25;5041612;28;20136;-54
2022/11/14 05:51:36;;;;;;;;;;;;;;;3.63;82.49;101231.31;5048622;28;19913;-56
2022/11/14 05:54:01;;;;;;;;;;;;;;;3.63;82.56;101231.31;5049184;28;19913;-55
2022/11/14 05:56:26;;;;;;;;;;;;;;;3.63;82.72;101227.84;5047684;28;19920;-55
2022/11/14 05:58:51;;;;;;;;;;;;;;;3.64;82.74;101227.72;5047571;28;20467;-53
2022/11/14 06:01:18;;;;;;;;;;;;;;;3.66;82.69;101225.00;5048729;28;19927;-57
2022/11/14 06:03:44;;;;;;;;;;;;;;;3.67;82.72;101226.66;5046150;28;19932;-56
2022/11/14 06:06:11;;;;;;;;;;;;;;;3.67;82.43;101229.28;5048674;28;19970;-55
2022/11/14 06:08:36;;;;;;;;;;;;;;;3.69;82.33;101232.63;5047321;28;19964;-55
2022/11/14 06:11:05;;;;;;;;;;;;;;;3.69;82.49;101225.59;5049422;28;19944;-55
2022/11/14 06:13:31;;;;;;;;;;;;;;;3.71;82.48;101233.34;5043643;28;20531;-56
2022/11/14 06:15:57;;;;;;;;;;;;;;;3.70;82.29;101234.31;5046675;28;20395;-57
2022/11/14 06:18:23;;;;;;;;;;;;;;;3.71;82.15;101233.34;5048685;28;19921;-56
2022/11/14 06:20:48;;;;;;;;;;;;;;;3.71;82.08;101228.94;5051687;28;20321;-56
2022/11/14 06:23:13;;;;;;;;;;;;;;;3.71;82.14;101223.69;5050249;28;20358;-56
2022/11/14 06:25:38;;;;;;;;;;;;;;;3.70;82.27;101229.03;5048486;28;19963;-57
2022/11/14 06:28:03;;;;;;;;;;;;;;;3.71;81.91;101242.06;5048679;28;19952;-55
2022/11/14 06:30:28;;;;;;;;;;;;;;;3.70;82.17;101236.94;5045383;28;19963;-58
2022/11/14 06:32:58;;;;;;;;;;;;;;;3.68;81.95;101239.66;5050564;28;19924;-55
2022/11/14 06:35:23;;;;;;;;;;;;;;;3.68;81.84;101241.47;5046921;28;19924;-57
2022/11/14 06:37:48;;;;;;;;;;;;;;;3.68;81.84;101236.22;5049411;28;19912;-55
2022/11/14 06:40:13;;;;;;;;;;;;;;;3.67;81.99;101231.91;5043416;28;19932;-55
2022/11/14 06:42:38;;;;;;;;;;;;;;;3.65;82.02;101226.78;5050422;28;19921;-56
2022/11/14 06:45:04;;;;;;;;;;;;;;;3.65;82.18;101233.81;5046737;28;19932;-55
2022/11/14 06:47:29;;;;;;;;;;;;;;;3.65;82.25;101220.69;5050133;28;19921;-54
2022/11/14 06:49:54;;;;;;;;;;;;;;;3.64;82.18;101230.34;5050462;28;20426;-57
2022/11/14 06:52:19;;;;;;;;;;;;;;;3.63;82.42;101230.47;5048235;28;19966;-56
2022/11/14 06:54:44;;;;;;;;;;;;;;;3.62;82.62;101234.06;5051331;28;19924;-55
2022/11/14 06:57:10;;;;;;;;;;;;;;;3.60;82.62;101225.47;5055102;28;20351;-55
2022/11/14 06:59:35;;;;;;;;;;;;;;;3.59;82.55;101234.28;5049425;28;19917;-54
2022/11/14 07:02:00;;;;;;;;;;;;;;;3.58;82.51;101235.25;5047020;28;20655;-54
2022/11/14 07:04:25;;;;;;;;;;;;;;;3.55;82.38;101245.97;5040934;28;19939;-54
2022/11/14 07:06:51;;;;;;;;;;;;;;;3.53;82.39;101250.50;5042969;28;19936;-55
2022/11/14 07:09:16;;;;;;;;;;;;;;;3.53;82.48;101253.13;5046202;28;20019;-56
2022/11/14 07:11:44;;;;;;;;;;;;;;;3.51;82.25;101248.00;5051448;28;19966;-56
2022/11/14 07:14:09;;;;;;;;;;;;;;;3.52;82.17;101252.31;5058256;28;19917;-54
2022/11/14 07:16:35;;;;;;;;;;;;;;;3.53;82.13;101253.97;5051779;28;20497;-53
2022/11/14 07:19:01;;;;;;;;;;;;;;;3.50;82.18;101248.13;5052431;28;19920;-57
2022/11/14 07:21:27;;;;;;;;;;;;;;;3.42;81.99;101256.53;5051294;28;20494;-57
2022/11/14 07:23:52;;;;;;;;;;;;;;;3.38;82.05;101249.84;5052742;28;20522;-56
2022/11/14 07:26:17;;;;;;;;;;;;;;;3.37;81.94;101250.81;5055175;28;19917;-55
2022/11/14 07:28:43;;;;;;;;;;;;;;;3.37;81.86;101249.00;5054717;28;20373;-55
2022/11/14 07:31:11;;;;;;;;;;;;;;;3.42;81.84;101243.41;5038338;28;20095;-57
2022/11/14 07:33:36;;;;;;;;;;;;;;;3.50;81.40;101246.34;5043595;28;19917;-55
2022/11/14 07:36:01;;;;;;;;;;;;;;;3.58;81.70;101243.13;5051532;28;20395;-55
2022/11/14 07:38:26;;;;;;;;;;;;;;;3.66;81.77;101243.38;5051773;28;19914;-56
2022/11/14 07:40:53;;;;;;;;;;;;;;;3.72;81.65;101237.66;5050065;28;20552;-53
2022/11/14 07:43:18;;;;;;;;;;;;;;;3.80;81.68;101240.56;5049866;28;19913;-56
2022/11/14 07:45:43;;;;;;;;;;;;;;;3.88;81.81;101237.31;5059756;28;20026;-55
2022/11/14 07:48:08;;;;;;;;;;;;;;;3.96;81.40;101241.03;5049180;28;20007;-56
2022/11/14 07:50:33;;;;;;;;;;;;;;;4.06;81.58;101233.28;5050148;28;19963;-54
2022/11/14 07:52:59;;;;;;;;;;;;;;;4.15;81.62;101229.94;5048768;28;19913;-55
2022/11/14 07:55:24;;;;;;;;;;;;;;;4.26;81.63;101226.47;5049667;28;19921;-56
2022/11/14 07:57:51;;;;;;;;;;;;;;;4.34;81.73;101219.66;5047396;28;19951;-57
2022/11/14 08:00:18;;;;;;;;;;;;;;;4.48;81.93;101228.25;5044008;28;21407;-54
2022/11/14 08:02:44;;;;;;;;;;;;;;;4.58;81.79;101226.53;5039901;28;19935;-56
2022/11/14 08:05:10;;;;;;;;;;;;;;;4.71;82.07;101215.91;5040697;28;19960;-56
2022/11/14 08:07:35;;;;;;;;;;;;;;;4.87;82.20;101214.50;5047601;28;19975;-56
2022/11/14 08:10:00;;;;;;;;;;;;;;;5.00;82.27;101219.63;5053668;28;20013;-55
2022/11/14 08:12:25;;;;;;;;;;;;;;;5.11;82.31;101201.16;5050587;28;20399;-55
2022/11/14 08:14:50;;;;;;;;;;;;;;;5.25;82.11;101215.81;5058070;28;19917;-56
2022/11/14 08:17:15;;;;;;;;;;;;;;;5.38;82.10;101215.63;5050850;28;20395;-56
2022/11/14 08:19:41;;;;;;;;;;;;;;;5.49;82.02;101220.81;5047771;28;19920;-56
2022/11/14 08:22:06;;;;;;;;;;;;;;;5.58;81.72;101212.16;5058404;28;20345;-55
2022/11/14 08:24:32;;;;;;;;;;;;;;;5.68;81.42;101213.06;5049477;28;19921;-55
2022/11/14 08:26:57;;;;;;;;;;;;;;;5.74;81.59;101212.53;5049935;28;19974;-53
2022/11/14 08:29:22;;;;;;;;;;;;;;;5.80;81.13;101198.84;5051420;28;20380;-56
2022/11/14 08:31:48;;;;;;;;;;;;;;;5.89;81.02;101208.63;5050571;28;19919;-56
2022/11/14 08:34:13;;;;;;;;;;;;;;;5.97;80.85;101196.59;5048913;28;19913;-54
2022/11/14 08:36:38;;;;;;;;;;;;;;;6.00;80.62;101201.59;5050393;28;19913;-57
2022/11/14 08:39:03;;;;;;;;;;;;;;;5.96;80.02;101205.47;5048735;28;20288;-57
2022/11/14 08:41:28;;;;;;;;;;;;;;;5.92;80.02;101199.63;5054431;28;19916;-56
2022/11/14 08:43:54;;;;;;;;;;;;;;;5.91;80.24;101203.22;5050539;28;20004;-56
2022/11/14 08:46:19;;;;;;;;;;;;;;;5.89;80.04;101191.94;5050494;28;19916;-53
2022/11/14 08:48:44;;;;;;;;;;;;;;;5.87;79.83;101192.09;5052059;28;19924;-56
2022/11/14 08:51:09;;;;;;;;;;;;;;;5.90;79.64;101193.66;5048790;28;19947;-58
2022/11/14 08:53:34;;;;;;;;;;;;;;;5.87;79.70;101186.81;5051088;28;20119;-56
2022/11/14 08:56:00;;;;;;;;;;;;;;;5.94;80.00;101187.16;5047629;28;19917;-57
2022/11/14 08:58:29;;;;;;;;;;;;;;;5.97;79.73;101189.50;5052151;28;19920;-55
2022/11/14 09:00:58;;;;;;;;;;;;;;;5.95;79.29;101190.63;5056693;28;19920;-57
2022/11/14 09:03:23;;;;;;;;;;;;;;;5.98;78.93;101185.06;5050580;28;19912;-57
2022/11/14 09:05:51;;;;;;;;;;;;;;;5.96;78.86;101187.00;5051594;28;19928;-54
2022/11/14 09:08:17;;;;;;;;;;;;;;;5.97;79.21;101178.13;5047838;28;20566;-56
2022/11/14 09:10:42;;;;;;;;;;;;;;;6.01;79.51;101182.16;5052382;28;20007;-52
2022/11/14 09:13:07;;;;;;;;;;;;;;;6.07;79.24;101184.28;5050929;28;19913;-55
2022/11/14 09:15:32;;;;;;;;;;;;;;;6.12;79.32;101184.72;5049482;28;20003;-56
2022/11/14 09:17:58;;;;;;;;;;;;;;;6.14;79.25;101180.16;5047633;28;19970;-55
2022/11/14 09:20:23;;;;;;;;;;;;;;;6.16;79.25;101173.78;5048859;28;20295;-55
2022/11/14 09:22:52;;;;;;;;;;;;;;;6.17;79.34;101166.72;5047172;28;19912;-56
2022/11/14 09:25:17;;;;;;;;;;;;;;;6.19;79.30;101165.59;5053313;28;19920;-57
2022/11/14 09:27:43;;;;;;;;;;;;;;;6.24;78.92;101165.19;5043465;28;20316;-53
2022/11/14 09:30:08;;;;;;;;;;;;;;;6.27;79.38;101169.34;5048433;28;19913;-54
2022/11/14 09:32:33;;;;;;;;;;;;;;;6.29;79.33;101157.69;5048584;28;19928;-57
2022/11/14 09:34:59;;;;;;;;;;;;;;;6.32;79.38;101164.50;5047694;28;19966;-55
2022/11/14 09:37:24;;;;;;;;;;;;;;;6.36;79.33;101156.22;5048430;28;19966;-57
2022/11/14 09:39:49;;;;;;;;;;;;;;;6.39;79.11;101150.66;5047621;28;19917;-56
2022/11/14 09:42:29;;;;;;;;;;;;;;;6.43;78.96;101146.78;5046228;28;19913;-54
2022/11/14 09:45:01;;;;;;;;;;;;;;;6.48;78.68;101139.28;5045170;28;19960;-57
2022/11/14 09:47:28;;;;;;;;;;;;;;;6.52;79.42;101145.97;5036965;28;19978;-56
2022/11/14 09:49:58;;;;;;;;;;;;;;;6.57;78.97;101145.53;5038489;28;19924;-57
2022/11/14 09:52:35;;;;;;;;;;;;;;;6.61;78.97;101146.94;5039015;28;20010;-54
2022/11/14 09:55:11;;;;;;;;;;;;;;;6.66;79.26;101150.00;5039778;28;19921;-59
2022/11/14 09:57:37;;;;;;;;;;;;;;;6.74;79.18;101150.16;5042029;28;20344;-56
2022/11/14 10:00:32;;;;;;;;;;;;;;;6.79;78.89;101157.66;5041716;28;19923;-57
2022/11/14 10:03:03;;;;;;;;;;;;;;;6.83;79.22;101159.88;5042165;28;19924;-57
2022/11/14 10:05:47;;;;;;;;;;;;;;;6.89;79.21;101153.19;5049156;28;19923;-55
2022/11/14 10:08:25;;;;;;;;;;;;;;;6.94;78.96;101156.28;5047697;28;19960;-54
2022/11/14 10:11:09;;;;;;;;;;;;;;;7.00;78.99;101160.16;5049603;28;19970;-56
2022/11/14 10:13:51;;;;;;;;;;;;;;;7.07;78.90;101150.69;5055495;28;19920;-55
2022/11/14 10:16:25;;;;;;;;;;;;;;;7.09;78.77;101157.50;5051002;28;19983;-56
2022/11/14 10:19:03;;;;;;;;;;;;;;;7.12;78.87;101148.47;5052921;28;19916;-56
2022/11/14 10:21:28;;;;;;;;;;;;;;;7.15;78.65;101149.00;5050407;28;19974;-57
2022/11/14 10:24:17;;;;;;;;;;;;;;;7.20;78.96;101139.84;5049698;28;19916;-54
2022/11/14 10:27:01;;;;;;;;;;;;;;;7.25;79.01;101148.19;5038237;28;20362;-56
2022/11/14 10:29:41;;;;;;;;;;;;;;;7.29;78.79;101145.13;5047164;28;19920;-55
2022/11/14 10:32:23;;;;;;;;;;;;;;;7.34;78.67;101145.53;5046151;28;20412;-57
2022/11/14 10:35:02;;;;;;;;;;;;;;;7.37;78.66;101139.94;5045708;28;19979;-53
2022/11/14 10:37:32;;;;;;;;;;;;;;;7.44;78.71;101146.31;5046878;28;19916;-55
2022/11/14 10:40:21;;;;;;;;;;;;;;;7.50;78.55;101131.69;5042156;28;19976;-56
2022/11/14 10:42:48;;;;;;;;;;;;;;;7.55;78.91;101134.78;5036682;28;19978;-53
2022/11/14 10:45:16;;;;;;;;;;;;;;;7.60;78.92;101129.88;5043986;28;19932;-57
2022/11/14 10:47:50;;;;;;;;;;;;;;;7.66;79.32;101129.31;5045861;28;19931;-54
2022/11/14 10:50:20;;;;;;;;;;;;;;;7.71;79.25;101126.22;5046881;28;19913;-56
2022/11/14 10:52:46;;;;;;;;;;;;;;;7.74;78.88;101125.94;5047085;28;19913;-58
2022/11/14 10:55:16;;;;;;;;;;;;;;;7.77;78.80;101121.19;5057855;28;19929;-55
2022/11/14 10:57:43;;;;;;;;;;;;;;;7.84;78.56;101125.91;5048186;28;19916;-56
2022/11/14 11:00:19;;;;;;;;;;;;;;;7.85;78.63;101119.63;5047242;28;19913;-54
2022/11/14 11:02:46;;;;;;;;;;;;;;;7.90;78.26;101127.97;5046003;28;19912;-55
2022/11/14 11:05:14;;;;;;;;;;;;;;;7.93;78.38;101122.38;5046200;28;19994;-57
2022/11/14 11:13:12;;;;;;;;;;;;;;;8.04;78.73;101106.31;5048386;28;19935;-57
2022/11/14 11:15:40;;;;;;;;;;;;;;;8.10;78.25;101095.16;5045653;28;20368;-55
2022/11/14 11:18:25;;;;;;;;;;;;;;;8.12;78.31;101101.13;5047744;28;19920;-56
2022/11/14 11:21:10;;;;;;;;;;;;;;;8.14;78.08;101091.22;5045299;28;20414;-56
2022/11/14 11:23:46;;;;;;;;;;;;;;;8.20;78.27;101093.28;5044877;28;19916;-56
2022/11/14 11:26:25;;;;;;;;;;;;;;;8.23;78.18;101078.91;5044793;28;19917;-56
2022/11/14 11:29:14;;;;;;;;;;;;;;;8.33;78.13;101074.38;5044981;28;19948;-56
2022/11/14 11:31:50;;;;;;;;;;;;;;;8.42;78.46;101075.34;5044004;28;19921;-56
2022/11/14 11:34:18;;;;;;;;;;;;;;;8.51;78.30;101061.19;5045382;28;19917;-56
2022/11/14 11:36:46;;;;;;;;;;;;;;;8.62;78.46;101072.38;5041621;28;20045;-56
2022/11/14 11:39:26;;;;;;;;;;;;;;;8.76;78.16;101070.19;5049624;28;19916;-54
2022/11/14 11:41:54;;;;;;;;;;;;;;;8.90;77.55;101066.97;5049418;28;20736;-56
2022/11/14 11:44:19;;;;;;;;;;;;;;;8.98;77.63;101067.06;5046011;28;19948;-57
2022/11/14 11:46:52;;;;;;;;;;;;;;;9.09;77.57;101061.50;5043823;28;20006;-55
2022/11/14 11:49:30;;;;;;;;;;;;;;;9.20;77.51;101055.91;5055825;28;20363;-56
2022/11/14 11:51:55;;;;;;;;;;;;;;;9.34;77.24;101061.66;5051970;28;20288;-56
2022/11/14 11:54:28;;;;;;;;;;;;;;;9.37;77.01;101063.97;5049672;28;19920;-57
2022/11/14 11:56:57;;;;;;;;;;;;;;;9.43;76.73;101066.81;5046123;28;19925;-56
2022/11/14 11:59:41;;;;;;;;;;;;;;;9.49;76.45;101071.50;5035760;28;20437;-56
2022/11/14 12:02:33;;;;;;;;;;;;;;;9.56;76.41;101075.19;5048948;28;20023;-57
2022/11/14 12:04:59;;;;;;;;;;;;;;;9.58;76.20;101081.16;5047432;28;19917;-56
2022/11/14 12:07:45;;;;;;;;;;;;;;;9.60;76.36;101081.00;5046845;28;20427;-57
2022/11/14 12:10:14;;;;;;;;;;;;;;;9.55;76.07;101085.97;5036254;28;19944;-55
2022/11/14 12:12:42;;;;;;;;;;;;;;;9.45;76.08;101080.75;5047822;28;19966;-59
2022/11/14 12:15:30;;;;;;;;;;;;;;;9.36;76.00;101081.69;5054195;28;19967;-57
2022/11/14 12:18:05;;;;;;;;;;;;;;;9.28;75.89;101086.97;5048450;28;20419;-57
2022/11/14 12:20:39;;;;;;;;;;;;;;;9.18;76.13;101087.03;5048988;28;19912;-55
2022/11/14 12:23:16;;;;;;;;;;;;;;;9.12;76.26;101086.84;5050969;28;19917;-56
2022/11/14 12:25:56;;;;;;;;;;;;;;;9.00;76.29;101084.44;5047126;28;19913;-54
2022/11/14 12:28:40;;;;;;;;;;;;;;;8.88;76.42;101087.47;5050588;28;19916;-56
2022/11/14 12:31:10;;;;;;;;;;;;;;;8.79;76.69;101083.94;5048675;28;20351;-55
2022/11/14 12:33:37;;;;;;;;;;;;;;;8.80;76.60;101072.38;5049038;28;19913;-56
2022/11/14 12:36:08;;;;;;;;;;;;;;;8.78;77.04;101073.50;5053359;28;20295;-55
2022/11/14 12:38:41;;;;;;;;;;;;;;;8.79;76.66;101083.94;5045720;28;19917;-57
2022/11/14 12:41:07;;;;;;;;;;;;;;;8.76;76.83;101089.56;5047387;28;19925;-55
2022/11/14 12:43:32;;;;;;;;;;;;;;;8.70;76.90;101082.22;5045741;28;20978;-58
2022/11/14 12:45:59;;;;;;;;;;;;;;;8.69;76.65;101096.44;5042052;28;20003;-56
2022/11/14 12:48:24;;;;;;;;;;;;;;;8.65;76.92;101082.66;5045037;28;19931;-57
2022/11/14 12:50:49;;;;;;;;;;;;;;;8.65;77.19;101087.94;5047204;28;19917;-57
2022/11/14 12:53:36;;;;;;;;;;;;;;;8.64;76.96;101081.00;5044763;28;19960;-55